There are no active watches, warnings or advisories for Caledonia (Vermont).

Nearby METAR Reports

 

KCDA - Lyndonville, Vermont, USA
Distance from station: ENE 11mi, 18km
Updated: Sat, 18-Nov-2017 7:35pm EST
Overcast
Overcast
 Wind from ESE
Wind: ESE 5 mph , 7 km/h
Temperature: 32°F , 0°C
Wind Chill: 27°F , -3°C
Dew Point: 21°F , -6°C
Humidity: 64%
Barometer: 29.56 inHg , 1001 hPa
Clouds: Overcast
Visibility: 10 miles , 16 km
Cloud details: Overcast 2800 ft
2017/11/19 00:35 KCDA 190035Z AUTO 12004KT 10SM OVC028 00/M06 A2956 RMK AO2 T00031061
K1V4 - St. Johnsbury, Vermont, USA
Distance from station: ESE 12mi, 19km
Updated: Sat, 18-Nov-2017 6:54pm EST

 
Temperature: 34°F , 1°C
Dew Point: 21°F , -6°C
Humidity: 60%
Barometer: 29.57 inHg , 1001.4 hPa
2017/11/18 23:54 K1V4 182354Z AUTO 01/M06 A2957 RMK AO1 SLP026 T00111056 10011 21006 58018
 
KMVL - Morrisville, Vermont, USA
Distance from station: W 20mi, 31km
Updated: Sat, 18-Nov-2017 6:54pm EST
Overcast
Overcast
 Wind from S
Wind: S 5 mph , 7 km/h
Temperature: 32°F , 0°C
Wind Chill: 27°F , -3°C
Dew Point: 23°F , -5°C
Humidity: 69%
Barometer: 29.56 inHg , 1001 hPa
Clouds: Overcast
Visibility: 10 miles , 16 km
Cloud details: Overcast 3300 ft
2017/11/18 23:54 KMVL 182354Z AUTO 18004KT 10SM OVC033 00/M05 A2956 RMK AO2 RAB14E26UPB26E34 SLP021 P0000 60000 T00001050 10006 21006 58018 TSNO
KEFK - Newport State, Vermont, USA
Distance from station: N 26mi, 42km
Updated: Sat, 18-Nov-2017 7:35pm EST
Light rain, Overcast
Light rain, Overcast
 Wind from S
Wind: S 8 mph , 13 km/h
Temperature: 32°F , 0°C
Wind Chill: 25°F , -4°C
Dew Point: 25°F , -4°C
Humidity: 75%
Barometer: 29.53 inHg , 1000 hPa
Summary: Light rain
Clouds: Overcast
Visibility: 7 miles , 11 km
Cloud details: Overcast 3600 ft
2017/11/19 00:35 KEFK 190035Z AUTO 17007KT 7SM -RA OVC036 00/M04 A2953 RMK AO2 T00031038
 
KMPV - Montpelier/Barre, Vermont, USA
Distance from station: SW 27mi, 44km
Updated: Sat, 18-Nov-2017 6:51pm EST
Overcast
Overcast
 Wind from varies
Wind: varies 5 mph , 7 km/h
Temperature: 36°F , 2°C
Wind Chill: 32°F , 0°C
Dew Point: 25°F , -4°C
Humidity: 65%
Barometer: 29.58 inHg , 1001.7 hPa
Clouds: Overcast
Visibility: 10 miles , 16 km
Cloud details: Overcast 2800 ft
2017/11/18 23:51 KMPV 182351Z AUTO VRB04KT 10SM OVC028 02/M04 A2958 RMK AO2 SLP035 60000 T00171044 10017 21011 56021
KHIE - Whitefield, New Hampshire, USA
Distance from station: ESE 34mi, 55km
Updated: Sat, 18-Nov-2017 7:34pm EST
Overcast
Overcast
 Wind from NNW
Wind: NNW 3 mph , 6 km/h
Temperature: 32°F , 0°C
Dew Point: 28°F , -2°C
Humidity: 87%
Barometer: 29.56 inHg , 1001 hPa
Clouds: Overcast
Visibility: 7 miles , 11 km
Cloud details: Overcast 2900 ft
2017/11/19 00:34 KHIE 190034Z AUTO 33003KT 7SM UP OVC029 00/M02 A2956 RMK AO2 RAE07UPB07 P0002 T00001017
 
KBTV - Burlington, Vermont, USA
Distance from station: W 46mi, 74km
Updated: Sat, 18-Nov-2017 6:54pm EST
Light rain, Overcast
Light rain, Overcast
 Wind from S
Wind: S 9 mph , 15 km/h
Temperature: 41°F , 5°C
Wind Chill: 35°F , 2°C
Dew Point: 25°F , -4°C
Humidity: 53%
Barometer: 29.52 inHg , 999.7 hPa
Summary: Light rain
Clouds: Overcast
Visibility: 10 miles , 16 km
Cloud details: Overcast 3200 ft
2017/11/18 23:54 KBTV 182354Z 17008KT 10SM -RA OVC032 05/M04 A2952 RMK AO2 RAB47 SLP998 P0000 60000 T00501044 10050 20033 58018
CWFQ - Frelighsburg, Quebec, Canada
Distance from station: NW 47mi, 75km
Updated: Sat, 18-Nov-2017 7:00pm EST

 Wind from SE
Wind: SE 7 mph , 11 km/h
Temperature: 36°F , 2°C
Wind Chill: 30°F , -1°C
Dew Point: 21°F , -6°C
Humidity: 56%
2017/11/19 00:00 CWFQ 190000Z AUTO 14006KT 02/M06 RMK AO1 SOG 01 8016 SLP989 T00171056
 
KMWN - Mount Washington, New Hampshire, USA
Distance from station: ESE 49mi, 79km
Updated: Sat, 18-Nov-2017 6:54pm EST

 Wind from WSW
Wind: WSW 37 mph , 59 km/h
Visibility: 0 miles , 0 km
2017/11/18 23:54 KMWN 182354Z 25032KT 0SM -SHPL FZFG VV000 M03/M03 RMK SHPLB35 VRY LGT ICG 60000 4/002 931000 11010 21044
KBML - Berlin, New Hampshire, USA
Distance from station: E 51mi, 83km
Updated: Sat, 18-Nov-2017 6:52pm EST
Overcast
Overcast
 Wind from SSW
Wind: SSW 5 mph , 7 km/h
Temperature: 36°F , 2°C
Wind Chill: 32°F , 0°C
Dew Point: 19°F , -7°C
Humidity: 52%
Barometer: 29.60 inHg , 1002.4 hPa
Clouds: Overcast
Visibility: 10 miles , 16 km
Cloud details: Overcast 4400 ft
2017/11/18 23:52 KBML 182352Z AUTO 20004KT 10SM OVC044 02/M07 A2960 RMK AO2 SLP040 T00221072 10022 20006 56013
 
KFSO - Highgate, Vermont, USA
Distance from station: NW 52mi, 84km
Updated: Sat, 18-Nov-2017 7:35pm EST
Overcast
Overcast
 Wind from SSE
Wind: SSE 7 mph , 11 km/h
Temperature: 39°F , 4°C
Wind Chill: 34°F , 1°C
Dew Point: 25°F , -4°C
Humidity: 56%
Barometer: 29.48 inHg , 998.3 hPa
Clouds: Overcast
Visibility: 10 miles , 16 km
Cloud details: Partly cloudy 3700 ft
Overcast 4600 ft
2017/11/19 00:35 KFSO 190035Z AUTO 15006KT 10SM SCT037 OVC046 04/M04 A2948 RMK AO2 T00361036
CWTT - Lac Memphremagog, Quebec, Canada
Distance from station: N 53mi, 85km
Updated: Sat, 18-Nov-2017 6:00pm EST
NOT Current

 Wind from SSW
Wind: SSW 6 mph , 9 km/h
Temperature: 37°F , 3°C
Wind Chill: 32°F , 0°C
Dew Point: 21°F , -6°C
Humidity: 52%
2017/11/18 23:00 CWTT 182300Z AUTO 21005KT 03/M06 RMK AO1 T00271064
 
K1P1 - Plymouth, New Hampshire, USA
Distance from station: SSE 55mi, 88km
Updated: Sat, 18-Nov-2017 7:35pm EST
Overcast
Overcast
 Wind from calm
Wind: Calm
Temperature: 32°F , 0°C
Dew Point: 28°F , -2°C
Humidity: 87%
Barometer: 29.63 inHg , 1003.4 hPa
Clouds: Overcast
Visibility: 10 miles , 16 km
Cloud details: Overcast 2600 ft
2017/11/19 00:35 K1P1 190035Z AUTO 00000KT 10SM OVC026 00/M02 A2963 RMK AO2 T00041025
KLEB - Lebanon, New Hampshire, USA
Distance from station: S 60mi, 97km
Updated: Sat, 18-Nov-2017 6:53pm EST
Overcast
Overcast
 Wind from calm
Wind: Calm
Temperature: 34°F , 1°C
Dew Point: 27°F , -3°C
Humidity: 75%
Barometer: 29.59 inHg , 1002 hPa
Clouds: Overcast
Visibility: 10 miles , 16 km
Cloud details: Mostly cloudy 1900 ft
Overcast 3000 ft
2017/11/18 23:53 KLEB 182353Z 00000KT 10SM BKN019 OVC030 01/M03 A2959 RMK AO2 SLP030 T00111033 10017 20000 58022
 
KPBG - Plattsburgh Afb, New York, USA
Distance from station: W 62mi, 100km
Updated: Sat, 18-Nov-2017 6:53pm EST
Overcast
Overcast
 Wind from S
Wind: S 9 mph , 15 km/h
Temperature: 39°F , 4°C
Wind Chill: 33°F , 1°C
Dew Point: 27°F , -3°C
Humidity: 61%
Barometer: 29.49 inHg , 998.6 hPa
Clouds: Overcast
Visibility: 10 miles , 16 km
Cloud details: Overcast 4500 ft
2017/11/18 23:53 KPBG 182353Z AUTO 17008KT 10SM OVC045 04/M03 A2949 RMK AO2 RAB20E35 SLP988 P0000 60000 T00391028 10039 20017 58021
CWQH - Lennoxville, Quebec, Canada
Distance from station: NNE 63mi, 101km
Updated: Sat, 18-Nov-2017 7:00pm EST

 Wind from NE
Wind: NE 5 mph , 7 km/h
Temperature: 34°F , 1°C
Wind Chill: 29°F , -2°C
Dew Point: 28°F , -2°C
Humidity: 81%
2017/11/19 00:00 CWQH 190000Z AUTO 04004KT 01/M02 RMK AO1 T00061020
 
CMGB - Granby, Quebec, Canada
Distance from station: NNW 65mi, 105km
Updated: Sat, 18-Nov-2017 7:30pm EST

 Wind from ESE
Wind: ESE 2 mph , 4 km/h
Temperature: 36°F , 2°C
Dew Point: 25°F , -4°C
Humidity: 65%
2017/11/19 00:30 CMGB 190030Z AUTO 12002KT 02/M04 RMK AO1 SOG 01 8014 SLP993 T00151038
CYSC - Sherbrooke, Quebec, Canada
Distance from station: NNE 69mi, 112km
Updated: Sat, 18-Nov-2017 7:00pm EST
Overcast
Overcast
 Wind from ESE
Wind: ESE 7 mph , 11 km/h
Temperature: 36°F , 2°C
Wind Chill: 30°F , -1°C
Dew Point: 19°F , -7°C
Humidity: 52%
Barometer: 29.56 inHg , 1001 hPa
Clouds: Overcast
Visibility: 9 miles , 14 km
Cloud details: Partly cloudy 4200 ft
Mostly cloudy 4900 ft
Overcast 7000 ft
2017/11/19 00:00 CYSC 190000Z AUTO 11006KT 9SM SCT042 BKN049 OVC070 02/M07 A2956 RMK SLP022
 
KIZG - Fryeburg, Maine, USA
Distance from station: ESE 72mi, 117km
Updated: Sat, 18-Nov-2017 6:54pm EST
Overcast
Overcast
 Wind from calm
Wind: Calm
Temperature: 34°F , 1°C
Dew Point: 27°F , -3°C
Humidity: 75%
Barometer: 29.68 inHg , 1005.1 hPa
Clouds: Overcast
Visibility: 10 miles , 16 km
Cloud details: Overcast 2900 ft
2017/11/18 23:54 KIZG 182354Z AUTO 00000KT 10SM OVC029 01/M03 A2968 RMK AO2 RAB28E51 SLP057 P0000 60000 T00111033 10050 20011 56015